Time;durP1;ratioP1;P1;durP2;ratioP2;P2;SDS_P1;SDS_P2;PMS_P1;PMS_P2;Temp;Humidity;BMP_temperature;BMP_pressure;BME280_temperature;BME280_humidity;BME280_pressure;Samples;Min_cycle;Max_cycle;Signal;HPM_P1;HPM_P2
2022/11/12 00:00:02;;;;;;;14.70;10.37;;;;;;;;;;509244;28;1137;-60
2022/11/12 00:00:18;;;;;;;15.82;10.50;;;;;;;;;;511157;28;1326;-60
2022/11/12 00:00:33;;;;;;;15.47;11.10;;;;;;;;;;511204;28;1133;-60
2022/11/12 00:00:50;;;;;;;19.02;12.65;;;;;;;;;;512048;28;1187;-60
2022/11/12 00:01:05;;;;;;;22.10;13.10;;;;;;;;;;512730;28;1163;-60
2022/11/12 00:01:21;;;;;;;19.95;12.95;;;;;;;;;;512641;28;1172;-60
2022/11/12 00:01:36;;;;;;;19.00;12.83;;;;;;;;;;513844;28;984;-60
2022/11/12 00:01:51;;;;;;;18.00;12.17;;;;;;;;;;515455;28;1135;-60
2022/11/12 00:02:07;;;;;;;16.42;12.00;;;;;;;;;;512570;28;1068;-60
2022/11/12 00:02:22;;;;;;;16.90;12.23;;;;;;;;;;512741;28;1365;-60
2022/11/12 00:02:37;;;;;;;16.63;11.90;;;;;;;;;;515153;28;1068;-60
2022/11/12 00:02:52;;;;;;;16.42;11.25;;;;;;;;;;515041;28;1046;-60
2022/11/12 00:03:08;;;;;;;17.03;11.30;;;;;;;;;;513312;28;1181;-60
2022/11/12 00:03:23;;;;;;;16.27;11.10;;;;;;;;;;510283;28;1220;-60
2022/11/12 00:03:39;;;;;;;16.10;10.80;;;;;;;;;;509901;28;1690;-60
2022/11/12 00:03:56;;;;;;;16.77;10.60;;;;;;;;;;510836;28;1140;-60
2022/11/12 00:04:11;;;;;;;17.33;10.82;;;;;;;;;;510855;28;1156;-59
2022/11/12 00:04:26;;;;;;;17.30;11.60;;;;;;;;;;510022;28;1512;-60
2022/11/12 00:04:41;;;;;;;16.63;11.70;;;;;;;;;;510291;28;1442;-60
2022/11/12 00:04:57;;;;;;;14.67;10.37;;;;;;;;;;511706;28;1432;-60
2022/11/12 00:05:12;;;;;;;18.47;12.50;;;;;;;;;;513770;28;1342;-60
2022/11/12 00:05:28;;;;;;;23.25;15.35;;;;;;;;;;513043;28;1295;-60
2022/11/12 00:05:44;;;;;;;30.65;17.98;;;;;;;;;;512423;28;1119;-60
2022/11/12 00:06:00;;;;;;;27.17;15.70;;;;;;;;;;511798;28;1171;-60
2022/11/12 00:06:15;;;;;;;19.97;13.13;;;;;;;;;;511220;28;1213;-59
2022/11/12 00:06:30;;;;;;;20.05;13.57;;;;;;;;;;511861;28;1160;-60
2022/11/12 00:06:45;;;;;;;21.37;14.10;;;;;;;;;;511675;28;1507;-60
2022/11/12 00:07:01;;;;;;;24.43;15.60;;;;;;;;;;508496;28;996;-60
2022/11/12 00:07:16;;;;;;;21.90;14.17;;;;;;;;;;510509;28;1300;-60
2022/11/12 00:07:31;;;;;;;17.05;11.18;;;;;;;;;;510854;28;1583;-60
2022/11/12 00:07:46;;;;;;;16.90;10.63;;;;;;;;;;510378;28;1656;-60
2022/11/12 00:08:03;;;;;;;15.87;10.33;;;;;;;;;;510921;28;1914;-60
2022/11/12 00:08:18;;;;;;;15.20;10.38;;;;;;;;;;510983;28;1416;-60
2022/11/12 00:08:33;;;;;;;14.52;10.35;;;;;;;;;;513659;28;1230;-60
2022/11/12 00:08:48;;;;;;;13.63;9.97;;;;;;;;;;515476;28;1169;-60
2022/11/12 00:09:04;;;;;;;14.43;10.03;;;;;;;;;;513737;28;1151;-59
2022/11/12 00:09:19;;;;;;;16.00;10.10;;;;;;;;;;509197;28;1278;-60
2022/11/12 00:09:34;;;;;;;14.65;9.70;;;;;;;;;;509214;28;1168;-60
2022/11/12 00:09:49;;;;;;;13.13;9.80;;;;;;;;;;511793;28;1029;-60
2022/11/12 00:10:05;;;;;;;14.10;10.23;;;;;;;;;;511116;28;1296;-60
2022/11/12 00:10:21;;;;;;;14.85;10.55;;;;;;;;;;511329;28;1344;-60
2022/11/12 00:10:36;;;;;;;14.38;10.30;;;;;;;;;;508665;28;1231;-61
2022/11/12 00:10:51;;;;;;;13.47;9.93;;;;;;;;;;507583;28;1220;-60
2022/11/12 00:11:07;;;;;;;13.57;9.90;;;;;;;;;;509180;28;1486;-60
2022/11/12 00:11:22;;;;;;;14.15;10.05;;;;;;;;;;508810;28;1244;-59
2022/11/12 00:11:37;;;;;;;13.90;10.10;;;;;;;;;;511492;28;1184;-60
2022/11/12 00:11:52;;;;;;;15.10;10.30;;;;;;;;;;510025;28;1245;-60
2022/11/12 00:12:08;;;;;;;15.57;10.38;;;;;;;;;;509528;28;1433;-60
2022/11/12 00:12:23;;;;;;;13.90;9.93;;;;;;;;;;511731;28;1100;-60
2022/11/12 00:12:38;;;;;;;13.43;9.93;;;;;;;;;;510775;28;1301;-60
2022/11/12 00:12:54;;;;;;;13.97;10.23;;;;;;;;;;511408;28;1151;-60
2022/11/12 00:13:09;;;;;;;14.98;10.45;;;;;;;;;;509863;28;1249;-60
2022/11/12 00:13:24;;;;;;;16.70;10.67;;;;;;;;;;512163;28;1092;-60
2022/11/12 00:13:39;;;;;;;21.20;12.37;;;;;;;;;;513939;28;1139;-60
2022/11/12 00:13:55;;;;;;;25.00;13.98;;;;;;;;;;512970;28;1128;-60
2022/11/12 00:14:10;;;;;;;19.23;12.20;;;;;;;;;;510305;28;1209;-60
2022/11/12 00:14:25;;;;;;;15.73;10.50;;;;;;;;;;511078;28;1061;-60
2022/11/12 00:14:40;;;;;;;14.40;10.10;;;;;;;;;;509766;28;1226;-60
2022/11/12 00:14:56;;;;;;;13.80;10.23;;;;;;;;;;511773;28;1162;-60
2022/11/12 00:15:11;;;;;;;14.07;10.17;;;;;;;;;;511248;28;1160;-60
2022/11/12 00:15:26;;;;;;;14.03;9.80;;;;;;;;;;510617;28;1178;-60
2022/11/12 00:15:42;;;;;;;13.93;9.85;;;;;;;;;;510216;28;1144;-60
2022/11/12 00:15:57;;;;;;;13.53;9.73;;;;;;;;;;508210;28;2158;-60
2022/11/12 00:16:12;;;;;;;13.63;9.90;;;;;;;;;;513377;28;981;-60
2022/11/12 00:16:28;;;;;;;14.40;9.85;;;;;;;;;;513202;28;1001;-60
2022/11/12 00:16:43;;;;;;;14.53;9.80;;;;;;;;;;515212;28;1136;-60
2022/11/12 00:16:58;;;;;;;15.27;10.60;;;;;;;;;;513951;28;1007;-60
2022/11/12 00:17:13;;;;;;;16.23;11.10;;;;;;;;;;514068;28;1072;-60
2022/11/12 00:17:29;;;;;;;15.45;10.55;;;;;;;;;;514374;28;1008;-60
2022/11/12 00:17:44;;;;;;;14.37;9.97;;;;;;;;;;512646;28;1359;-60
2022/11/12 00:17:59;;;;;;;14.30;10.17;;;;;;;;;;511420;28;1108;-60
2022/11/12 00:18:15;;;;;;;14.40;10.48;;;;;;;;;;512753;28;1123;-60
2022/11/12 00:18:30;;;;;;;14.57;10.37;;;;;;;;;;510540;28;1183;-60
2022/11/12 00:18:47;;;;;;;16.43;10.27;;;;;;;;;;510786;28;1141;-60
2022/11/12 00:19:02;;;;;;;17.05;11.00;;;;;;;;;;510987;28;1431;-60
2022/11/12 00:19:17;;;;;;;16.93;11.37;;;;;;;;;;510148;28;1352;-60
2022/11/12 00:19:32;;;;;;;18.40;11.63;;;;;;;;;;511753;28;1135;-60
2022/11/12 00:19:48;;;;;;;25.33;14.87;;;;;;;;;;511586;28;1401;-60
2022/11/12 00:20:04;;;;;;;29.57;16.73;;;;;;;;;;511062;28;1199;-60
2022/11/12 00:20:19;;;;;;;24.38;14.57;;;;;;;;;;510818;28;1223;-60
2022/11/12 00:20:35;;;;;;;22.60;13.70;;;;;;;;;;512650;28;1160;-60
2022/11/12 00:20:50;;;;;;;23.33;13.87;;;;;;;;;;510256;28;1246;-60
2022/11/12 00:21:05;;;;;;;21.17;13.45;;;;;;;;;;510881;28;1142;-60
2022/11/12 00:21:21;;;;;;;18.70;12.10;;;;;;;;;;511131;28;1105;-60
2022/11/12 00:21:36;;;;;;;17.23;11.47;;;;;;;;;;507750;28;1264;-60
2022/11/12 00:21:51;;;;;;;16.67;11.10;;;;;;;;;;509812;28;1176;-60
2022/11/12 00:22:06;;;;;;;17.97;11.03;;;;;;;;;;510103;28;1020;-59
2022/11/12 00:22:22;;;;;;;18.73;11.40;;;;;;;;;;511161;28;1058;-60
2022/11/12 00:22:37;;;;;;;18.10;12.05;;;;;;;;;;510723;28;1470;-60
2022/11/12 00:22:52;;;;;;;19.00;12.90;;;;;;;;;;512898;28;1427;-60
2022/11/12 00:23:08;;;;;;;22.50;13.80;;;;;;;;;;510585;28;1329;-60
2022/11/12 00:23:23;;;;;;;23.88;14.32;;;;;;;;;;510659;28;1324;-59
2022/11/12 00:23:38;;;;;;;23.63;14.43;;;;;;;;;;509842;28;1231;-60
2022/11/12 00:23:54;;;;;;;24.70;13.63;;;;;;;;;;509573;28;1200;-60
2022/11/12 00:24:09;;;;;;;21.80;12.40;;;;;;;;;;511335;28;1205;-60
2022/11/12 00:24:24;;;;;;;20.83;12.43;;;;;;;;;;512357;28;1219;-60
2022/11/12 00:24:39;;;;;;;27.27;12.60;;;;;;;;;;511117;28;1168;-60
2022/11/12 00:24:55;;;;;;;33.40;13.57;;;;;;;;;;509303;28;1132;-60
2022/11/12 00:25:10;;;;;;;30.38;14.10;;;;;;;;;;512434;28;1099;-61
2022/11/12 00:25:25;;;;;;;22.60;12.67;;;;;;;;;;515847;28;1178;-59
2022/11/12 00:25:40;;;;;;;24.90;11.60;;;;;;;;;;515916;28;1221;-59
2022/11/12 00:26:02;;;;;;;24.53;11.33;;;;;;;;;;514996;28;1217;-60
2022/11/12 00:26:17;;;;;;;19.35;11.00;;;;;;;;;;513674;28;1507;-60
2022/11/12 00:26:32;;;;;;;23.37;10.90;;;;;;;;;;515879;28;1210;-59
2022/11/12 00:26:47;;;;;;;29.00;12.27;;;;;;;;;;512913;28;1270;-60
2022/11/12 00:27:03;;;;;;;29.33;13.85;;;;;;;;;;511379;28;1246;-60
2022/11/12 00:27:18;;;;;;;26.93;13.53;;;;;;;;;;511328;28;1182;-60
2022/11/12 00:27:34;;;;;;;27.55;12.95;;;;;;;;;;513051;28;1206;-60
2022/11/12 00:27:49;;;;;;;25.50;12.10;;;;;;;;;;512873;28;1046;-60
2022/11/12 00:28:08;;;;;;;19.63;10.80;;;;;;;;;;512911;28;1922;-60
2022/11/12 00:28:24;;;;;;;16.92;10.43;;;;;;;;;;511022;28;1280;-60
2022/11/12 00:28:39;;;;;;;16.00;10.33;;;;;;;;;;512930;28;1139;-59
2022/11/12 00:28:54;;;;;;;15.87;10.20;;;;;;;;;;513365;28;1173;-60
2022/11/12 00:29:10;;;;;;;19.38;10.98;;;;;;;;;;511858;28;1269;-60
2022/11/12 00:29:25;;;;;;;21.80;11.50;;;;;;;;;;511764;28;1287;-60
2022/11/12 00:29:40;;;;;;;19.13;11.20;;;;;;;;;;512676;28;1403;-60
2022/11/12 00:29:56;;;;;;;22.13;11.20;;;;;;;;;;509271;29;1255;-60
2022/11/12 00:30:11;;;;;;;19.90;11.00;;;;;;;;;;508748;29;1160;-60
2022/11/12 00:30:27;;;;;;;15.85;10.48;;;;;;;;;;507115;29;1144;-60
2022/11/12 00:30:42;;;;;;;17.33;10.70;;;;;;;;;;507715;29;1169;-60
2022/11/12 00:30:57;;;;;;;16.90;10.40;;;;;;;;;;508550;28;1449;-60
2022/11/12 00:31:12;;;;;;;19.20;10.63;;;;;;;;;;509340;28;1138;-60
2022/11/12 00:31:28;;;;;;;19.63;10.97;;;;;;;;;;508971;28;1428;-60
2022/11/12 00:31:43;;;;;;;18.53;11.00;;;;;;;;;;509165;28;1139;-60
2022/11/12 00:31:58;;;;;;;17.98;10.90;;;;;;;;;;515889;28;1094;-59
2022/11/12 00:32:14;;;;;;;17.33;10.73;;;;;;;;;;515030;28;1060;-60
2022/11/12 00:32:29;;;;;;;16.87;10.50;;;;;;;;;;515220;28;1674;-60
2022/11/12 00:32:44;;;;;;;15.80;10.27;;;;;;;;;;515348;28;1159;-60
2022/11/12 00:33:01;;;;;;;15.60;10.27;;;;;;;;;;514704;28;1196;-60
2022/11/12 00:33:16;;;;;;;14.73;10.27;;;;;;;;;;515082;28;1083;-60
2022/11/12 00:33:32;;;;;;;14.87;10.60;;;;;;;;;;515196;28;1056;-60
2022/11/12 00:33:47;;;;;;;15.37;10.33;;;;;;;;;;515423;28;1060;-60
2022/11/12 00:34:02;;;;;;;16.70;9.97;;;;;;;;;;513365;28;1194;-59
2022/11/12 00:34:17;;;;;;;16.08;9.77;;;;;;;;;;508545;28;1135;-60
2022/11/12 00:34:33;;;;;;;17.77;9.93;;;;;;;;;;511568;28;1088;-60
2022/11/12 00:34:48;;;;;;;19.23;10.18;;;;;;;;;;511142;28;1192;-60
2022/11/12 00:35:05;;;;;;;17.30;10.13;;;;;;;;;;511797;28;1135;-60
2022/11/12 00:35:20;;;;;;;15.30;10.10;;;;;;;;;;510797;28;1399;-60
2022/11/12 00:35:35;;;;;;;14.73;10.10;;;;;;;;;;510265;28;1176;-60
2022/11/12 00:35:51;;;;;;;15.37;9.93;;;;;;;;;;511546;28;1081;-60
2022/11/12 00:36:07;;;;;;;15.97;10.43;;;;;;;;;;513505;28;1090;-60
2022/11/12 00:36:22;;;;;;;15.10;10.73;;;;;;;;;;512840;28;1111;-60
2022/11/12 00:36:37;;;;;;;14.05;10.10;;;;;;;;;;512285;28;1128;-60
2022/11/12 00:36:52;;;;;;;15.40;10.20;;;;;;;;;;512149;28;1198;-60
2022/11/12 00:37:08;;;;;;;15.03;10.30;;;;;;;;;;512627;28;1198;-59
2022/11/12 00:37:24;;;;;;;18.63;10.20;;;;;;;;;;512684;28;1213;-60
2022/11/12 00:37:39;;;;;;;20.33;10.05;;;;;;;;;;512971;28;1079;-60
2022/11/12 00:37:55;;;;;;;16.55;10.05;;;;;;;;;;512113;28;1175;-60
2022/11/12 00:38:11;;;;;;;15.25;10.00;;;;;;;;;;513030;28;1012;-60
2022/11/12 00:38:29;;;;;;;16.33;9.90;;;;;;;;;;514582;28;1130;-60
2022/11/12 00:38:44;;;;;;;15.70;9.98;;;;;;;;;;511694;28;1115;-60
2022/11/12 00:39:00;;;;;;;15.73;9.37;;;;;;;;;;512136;28;1410;-60
2022/11/12 00:39:15;;;;;;;15.40;9.27;;;;;;;;;;512341;28;1381;-60
2022/11/12 00:39:30;;;;;;;13.57;9.23;;;;;;;;;;513129;28;982;-60
2022/11/12 00:39:45;;;;;;;12.30;8.60;;;;;;;;;;513906;28;1091;-60
2022/11/12 00:40:01;;;;;;;12.43;8.73;;;;;;;;;;514087;28;1502;-60
2022/11/12 00:40:16;;;;;;;13.15;9.25;;;;;;;;;;513193;28;1077;-60
2022/11/12 00:40:31;;;;;;;14.90;9.57;;;;;;;;;;514281;28;1170;-60
2022/11/12 00:40:46;;;;;;;14.33;9.50;;;;;;;;;;512568;28;1696;-60
2022/11/12 00:41:02;;;;;;;13.07;9.17;;;;;;;;;;513559;28;1035;-60
2022/11/12 00:41:17;;;;;;;17.17;9.53;;;;;;;;;;511497;28;1127;-60
2022/11/12 00:41:32;;;;;;;17.87;9.77;;;;;;;;;;510447;28;1440;-60
2022/11/12 00:41:47;;;;;;;16.53;9.60;;;;;;;;;;506021;29;1215;-60
2022/11/12 00:42:03;;;;;;;16.73;9.68;;;;;;;;;;504461;29;1418;-60
2022/11/12 00:42:18;;;;;;;16.03;9.90;;;;;;;;;;504416;29;1149;-60
2022/11/12 00:42:33;;;;;;;13.80;9.60;;;;;;;;;;502687;29;1254;-60
2022/11/12 00:42:52;;;;;;;12.60;8.80;;;;;;;;;;503661;29;1403;-60
2022/11/12 00:43:07;;;;;;;14.07;8.75;;;;;;;;;;503232;29;1125;-60
2022/11/12 00:43:23;;;;;;;13.00;8.73;;;;;;;;;;502788;29;1745;-60
2022/11/12 00:43:39;;;;;;;12.57;8.95;;;;;;;;;;505983;29;1216;-60
2022/11/12 00:43:54;;;;;;;13.53;9.10;;;;;;;;;;508382;28;1338;-60
2022/11/12 00:44:09;;;;;;;12.50;8.67;;;;;;;;;;511546;28;1132;-60
2022/11/12 00:44:24;;;;;;;12.57;8.87;;;;;;;;;;513639;28;1308;-60
2022/11/12 00:44:40;;;;;;;13.90;8.82;;;;;;;;;;513582;28;1099;-60
2022/11/12 00:44:55;;;;;;;13.27;8.63;;;;;;;;;;515249;28;1178;-60
2022/11/12 00:45:10;;;;;;;13.17;8.90;;;;;;;;;;511913;28;1217;-60
2022/11/12 00:45:26;;;;;;;12.48;8.88;;;;;;;;;;513526;28;1076;-59
2022/11/12 00:45:42;;;;;;;13.33;8.80;;;;;;;;;;513138;28;1347;-60
2022/11/12 00:45:57;;;;;;;16.00;8.75;;;;;;;;;;513250;28;1149;-60
2022/11/12 00:46:12;;;;;;;14.05;8.52;;;;;;;;;;513135;28;1178;-60
2022/11/12 00:46:28;;;;;;;12.70;8.57;;;;;;;;;;511218;28;1789;-60
2022/11/12 00:46:43;;;;;;;14.73;8.80;;;;;;;;;;512550;28;1166;-60
2022/11/12 00:46:58;;;;;;;15.10;8.77;;;;;;;;;;513457;28;1191;-60
2022/11/12 00:47:15;;;;;;;13.67;8.60;;;;;;;;;;511817;28;1309;-60
2022/11/12 00:47:30;;;;;;;13.27;8.40;;;;;;;;;;513440;28;1206;-59
2022/11/12 00:47:45;;;;;;;12.70;8.40;;;;;;;;;;509776;28;1384;-60
2022/11/12 00:48:01;;;;;;;12.13;8.57;;;;;;;;;;510475;28;1989;-60
2022/11/12 00:48:16;;;;;;;12.67;8.80;;;;;;;;;;510255;28;1286;-60
2022/11/12 00:48:31;;;;;;;15.53;8.80;;;;;;;;;;511155;28;1222;-60
2022/11/12 00:48:46;;;;;;;17.40;9.00;;;;;;;;;;508903;28;1403;-59
2022/11/12 00:49:02;;;;;;;14.77;8.70;;;;;;;;;;509219;28;1255;-60
2022/11/12 00:49:17;;;;;;;12.77;8.20;;;;;;;;;;508925;28;1367;-60
2022/11/12 00:49:32;;;;;;;14.07;8.57;;;;;;;;;;505997;28;1286;-60
2022/11/12 00:49:48;;;;;;;14.60;9.00;;;;;;;;;;509074;28;1204;-60
2022/11/12 00:50:03;;;;;;;11.90;8.43;;;;;;;;;;509907;28;1209;-60
2022/11/12 00:50:19;;;;;;;12.05;8.15;;;;;;;;;;507580;28;1211;-60
2022/11/12 00:50:34;;;;;;;12.80;8.53;;;;;;;;;;509208;28;1073;-60
2022/11/12 00:50:49;;;;;;;11.70;8.45;;;;;;;;;;507979;29;1273;-59
2022/11/12 00:51:05;;;;;;;12.93;8.60;;;;;;;;;;509229;28;1255;-60
2022/11/12 00:51:20;;;;;;;13.23;8.45;;;;;;;;;;511127;28;1124;-60
2022/11/12 00:51:36;;;;;;;11.67;7.90;;;;;;;;;;507796;28;1264;-60
2022/11/12 00:51:51;;;;;;;11.82;7.97;;;;;;;;;;508716;28;1234;-60
2022/11/12 00:52:07;;;;;;;12.03;8.43;;;;;;;;;;508398;28;1141;-60
2022/11/12 00:52:22;;;;;;;11.93;8.45;;;;;;;;;;510750;28;1194;-60
2022/11/12 00:52:37;;;;;;;12.97;8.10;;;;;;;;;;512656;28;1227;-60
2022/11/12 00:52:53;;;;;;;13.07;8.03;;;;;;;;;;510898;28;1111;-60
2022/11/12 00:53:08;;;;;;;14.63;8.52;;;;;;;;;;510993;28;1064;-60
2022/11/12 00:53:23;;;;;;;15.90;8.90;;;;;;;;;;512665;28;1528;-60
2022/11/12 00:53:39;;;;;;;16.47;8.90;;;;;;;;;;512408;28;1159;-60
2022/11/12 00:53:54;;;;;;;14.88;8.52;;;;;;;;;;512717;28;1265;-60
2022/11/12 00:54:09;;;;;;;12.30;8.20;;;;;;;;;;511655;28;1182;-60
2022/11/12 00:54:25;;;;;;;12.00;8.20;;;;;;;;;;513476;28;1123;-60
2022/11/12 00:54:40;;;;;;;13.15;8.35;;;;;;;;;;512963;28;1290;-60
2022/11/12 00:54:55;;;;;;;13.60;8.30;;;;;;;;;;513291;28;1087;-60
2022/11/12 00:55:10;;;;;;;12.90;8.17;;;;;;;;;;512906;28;1276;-60
2022/11/12 00:55:26;;;;;;;12.90;8.37;;;;;;;;;;511838;28;1164;-60
2022/11/12 00:55:41;;;;;;;11.77;8.33;;;;;;;;;;511969;28;1210;-60
2022/11/12 00:56:03;;;;;;;11.13;8.27;;;;;;;;;;513049;28;1531;-60
2022/11/12 00:56:18;;;;;;;11.60;8.55;;;;;;;;;;512035;28;1095;-60
2022/11/12 00:56:33;;;;;;;12.40;8.73;;;;;;;;;;512404;28;947;-60
2022/11/12 00:56:48;;;;;;;11.80;8.30;;;;;;;;;;515660;28;1151;-60
2022/11/12 00:57:04;;;;;;;11.77;8.18;;;;;;;;;;514618;28;1139;-60
2022/11/12 00:57:19;;;;;;;13.40;8.73;;;;;;;;;;513848;28;1124;-60
2022/11/12 00:57:34;;;;;;;12.10;8.40;;;;;;;;;;513966;28;1439;-60
2022/11/12 00:57:50;;;;;;;11.75;8.25;;;;;;;;;;514460;28;1229;-60
2022/11/12 00:58:05;;;;;;;12.47;8.37;;;;;;;;;;513164;28;1208;-60
2022/11/12 00:58:20;;;;;;;11.70;8.23;;;;;;;;;;511561;28;1163;-60
2022/11/12 00:58:35;;;;;;;10.98;8.00;;;;;;;;;;511587;28;1219;-59
2022/11/12 00:58:51;;;;;;;11.80;8.27;;;;;;;;;;510184;28;1330;-60
2022/11/12 00:59:06;;;;;;;13.33;8.37;;;;;;;;;;511246;28;2249;-60
2022/11/12 00:59:21;;;;;;;13.97;8.10;;;;;;;;;;511955;28;1159;-60
2022/11/12 00:59:37;;;;;;;13.23;7.85;;;;;;;;;;512034;28;1179;-59
2022/11/12 00:59:52;;;;;;;13.60;8.23;;;;;;;;;;511334;28;1064;-60
2022/11/12 01:00:13;;;;;;;12.97;8.40;;;;;;;;;;509876;28;1199;-60
2022/11/12 01:00:28;;;;;;;11.93;8.48;;;;;;;;;;512494;28;1224;-60
2022/11/12 01:00:44;;;;;;;11.20;8.30;;;;;;;;;;512305;28;1179;-60
2022/11/12 01:01:11;;;;;;;11.53;8.00;;;;;;;;;;513177;28;1081;-59
2022/11/12 01:01:26;;;;;;;12.35;8.48;;;;;;;;;;515145;28;1055;-59
2022/11/12 01:01:41;;;;;;;12.15;8.18;;;;;;;;;;515335;28;1203;-60
2022/11/12 01:01:57;;;;;;;13.03;7.80;;;;;;;;;;515072;28;1107;-60
2022/11/12 01:02:12;;;;;;;12.17;8.00;;;;;;;;;;514169;28;1258;-60
2022/11/12 01:02:27;;;;;;;10.25;7.88;;;;;;;;;;512042;28;1356;-60
2022/11/12 01:02:43;;;;;;;10.23;7.40;;;;;;;;;;515001;28;953;-60
2022/11/12 01:02:58;;;;;;;10.30;7.40;;;;;;;;;;512782;28;1285;-60
2022/11/12 01:03:13;;;;;;;11.57;7.85;;;;;;;;;;510909;28;1373;-59
2022/11/12 01:03:28;;;;;;;12.20;8.23;;;;;;;;;;509160;29;1170;-60
2022/11/12 01:03:44;;;;;;;11.77;8.17;;;;;;;;;;506137;29;1219;-60
2022/11/12 01:03:59;;;;;;;12.73;7.80;;;;;;;;;;508963;29;1156;-60
2022/11/12 01:04:14;;;;;;;11.67;7.60;;;;;;;;;;508740;29;1140;-60
2022/11/12 01:04:30;;;;;;;10.93;7.80;;;;;;;;;;508838;29;1503;-60
2022/11/12 01:04:45;;;;;;;11.82;8.05;;;;;;;;;;508140;28;1307;-60
2022/11/12 01:05:00;;;;;;;11.43;8.20;;;;;;;;;;510128;28;1243;-60
2022/11/12 01:05:16;;;;;;;11.13;8.13;;;;;;;;;;513283;28;1068;-60
2022/11/12 01:05:33;;;;;;;11.10;7.95;;;;;;;;;;515185;28;1111;-60
2022/11/12 01:05:48;;;;;;;10.98;8.00;;;;;;;;;;513405;28;1422;-60
2022/11/12 01:06:06;;;;;;;11.30;8.37;;;;;;;;;;513183;28;1265;-60
2022/11/12 01:06:22;;;;;;;12.85;8.38;;;;;;;;;;514558;28;1354;-60
2022/11/12 01:06:39;;;;;;;13.25;8.63;;;;;;;;;;514551;28;1220;-60
2022/11/12 01:06:55;;;;;;;11.68;8.60;;;;;;;;;;511269;28;1353;-60
2022/11/12 01:07:10;;;;;;;10.47;8.13;;;;;;;;;;510181;28;1415;-60
2022/11/12 01:07:26;;;;;;;11.90;8.17;;;;;;;;;;510370;28;1092;-60
2022/11/12 01:07:42;;;;;;;12.93;8.85;;;;;;;;;;509771;28;1152;-60
2022/11/12 01:07:57;;;;;;;15.90;11.88;;;;;;;;;;511185;28;1914;-59
2022/11/12 01:08:12;;;;;;;17.80;12.10;;;;;;;;;;509563;28;1166;-60
2022/11/12 01:08:29;;;;;;;16.87;11.00;;;;;;;;;;510654;28;1431;-60
2022/11/12 01:08:45;;;;;;;15.43;11.15;;;;;;;;;;510500;28;1184;-61
2022/11/12 01:09:00;;;;;;;15.27;11.30;;;;;;;;;;513236;28;1159;-60
2022/11/12 01:09:15;;;;;;;16.43;11.90;;;;;;;;;;511806;28;1249;-60
2022/11/12 01:09:30;;;;;;;15.53;11.40;;;;;;;;;;512859;28;1036;-60
2022/11/12 01:09:46;;;;;;;14.70;11.05;;;;;;;;;;512448;28;1372;-60
2022/11/12 01:10:01;;;;;;;15.00;11.47;;;;;;;;;;512053;28;1210;-60
2022/11/12 01:10:16;;;;;;;14.40;10.70;;;;;;;;;;513226;28;1163;-60
2022/11/12 01:10:34;;;;;;;13.77;9.90;;;;;;;;;;510064;28;1339;-60
2022/11/12 01:10:50;;;;;;;14.25;10.60;;;;;;;;;;509709;28;1159;-61
2022/11/12 01:11:06;;;;;;;17.07;13.17;;;;;;;;;;509781;28;1521;-59
2022/11/12 01:11:29;;;;;;;18.50;14.30;;;;;;;;;;509162;29;1414;-60
2022/11/12 01:11:44;;;;;;;16.10;12.23;;;;;;;;;;509436;28;1160;-60
2022/11/12 01:11:59;;;;;;;15.50;11.07;;;;;;;;;;509296;28;1219;-60
2022/11/12 01:12:15;;;;;;;14.27;9.45;;;;;;;;;;508358;28;1223;-60
2022/11/12 01:12:31;;;;;;;12.83;9.40;;;;;;;;;;509423;28;1062;-60
2022/11/12 01:12:46;;;;;;;12.23;9.45;;;;;;;;;;511565;28;1207;-60
2022/11/12 01:13:01;;;;;;;11.73;9.20;;;;;;;;;;508898;28;1215;-60
2022/11/12 01:13:16;;;;;;;12.20;9.18;;;;;;;;;;510103;28;1152;-60
2022/11/12 01:13:32;;;;;;;10.87;8.50;;;;;;;;;;508022;28;2206;-60
2022/11/12 01:13:54;;;;;;;10.30;8.27;;;;;;;;;;508221;28;1757;-60
2022/11/12 01:14:10;;;;;;;10.93;8.27;;;;;;;;;;509560;28;1247;-60
2022/11/12 01:14:25;;;;;;;11.20;8.30;;;;;;;;;;509673;28;1064;-60
2022/11/12 01:14:40;;;;;;;10.90;8.25;;;;;;;;;;511442;28;1033;-60
2022/11/12 01:14:56;;;;;;;11.40;8.40;;;;;;;;;;512142;28;1326;-60
2022/11/12 01:15:11;;;;;;;11.33;8.40;;;;;;;;;;511771;28;1072;-60
2022/11/12 01:15:26;;;;;;;10.30;8.13;;;;;;;;;;512816;28;1121;-60
2022/11/12 01:15:41;;;;;;;9.97;7.93;;;;;;;;;;513092;28;1449;-60
2022/11/12 01:15:57;;;;;;;10.17;8.20;;;;;;;;;;512863;28;1076;-60
2022/11/12 01:16:18;;;;;;;10.77;8.30;;;;;;;;;;512728;28;1194;-60
2022/11/12 01:16:38;;;;;;;11.02;7.88;;;;;;;;;;511102;28;1057;-60
2022/11/12 01:16:54;;;;;;;9.63;7.63;;;;;;;;;;513073;28;1693;-60
2022/11/12 01:17:09;;;;;;;10.30;7.70;;;;;;;;;;510168;28;1433;-60
2022/11/12 01:17:24;;;;;;;10.88;7.90;;;;;;;;;;513441;28;1107;-60
2022/11/12 01:17:40;;;;;;;9.90;7.77;;;;;;;;;;513055;28;1134;-60
2022/11/12 01:17:55;;;;;;;10.03;7.80;;;;;;;;;;512725;28;1181;-59
2022/11/12 01:18:10;;;;;;;10.40;7.90;;;;;;;;;;511326;28;1163;-60
2022/11/12 01:18:26;;;;;;;11.00;8.17;;;;;;;;;;511865;28;1236;-60
2022/11/12 01:18:42;;;;;;;10.77;7.93;;;;;;;;;;513282;28;1359;-60
2022/11/12 01:18:59;;;;;;;9.52;7.32;;;;;;;;;;511621;28;1587;-59
2022/11/12 01:19:14;;;;;;;10.50;7.78;;;;;;;;;;511956;28;1085;-60
2022/11/12 01:19:30;;;;;;;11.93;8.30;;;;;;;;;;511864;28;1425;-60
2022/11/12 01:19:45;;;;;;;11.68;8.50;;;;;;;;;;512774;28;1389;-60
2022/11/12 01:20:00;;;;;;;10.40;8.73;;;;;;;;;;512926;28;1076;-60
2022/11/12 01:20:16;;;;;;;10.87;8.93;;;;;;;;;;511465;28;1346;-60
2022/11/12 01:20:31;;;;;;;11.85;8.70;;;;;;;;;;510150;28;1111;-60
2022/11/12 01:20:46;;;;;;;14.50;8.53;;;;;;;;;;511790;28;1250;-60
2022/11/12 01:21:03;;;;;;;16.80;8.40;;;;;;;;;;512693;28;1028;-60
2022/11/12 01:21:19;;;;;;;15.55;8.27;;;;;;;;;;513122;28;1119;-60
2022/11/12 01:21:38;;;;;;;14.25;10.10;;;;;;;;;;512794;28;1027;-60
2022/11/12 01:21:53;;;;;;;12.20;9.60;;;;;;;;;;512956;28;1016;-60
2022/11/12 01:22:10;;;;;;;12.33;8.10;;;;;;;;;;513194;28;1024;-60
2022/11/12 01:22:25;;;;;;;13.95;7.88;;;;;;;;;;514948;28;1150;-60
2022/11/12 01:22:40;;;;;;;13.77;7.80;;;;;;;;;;512236;28;1546;-60
2022/11/12 01:22:56;;;;;;;11.87;7.70;;;;;;;;;;513267;28;1208;-60
2022/11/12 01:23:11;;;;;;;11.20;7.63;;;;;;;;;;513797;28;1155;-60
2022/11/12 01:23:27;;;;;;;11.83;8.30;;;;;;;;;;510144;28;1384;-60
2022/11/12 01:23:42;;;;;;;12.57;8.57;;;;;;;;;;510802;28;1392;-60
2022/11/12 01:23:59;;;;;;;11.80;8.60;;;;;;;;;;509728;28;1219;-60
2022/11/12 01:24:14;;;;;;;13.13;9.30;;;;;;;;;;511258;28;1096;-59
2022/11/12 01:24:29;;;;;;;13.73;9.07;;;;;;;;;;509986;28;1298;-60
2022/11/12 01:24:45;;;;;;;13.15;8.65;;;;;;;;;;512225;28;1450;-60
2022/11/12 01:25:00;;;;;;;15.43;9.00;;;;;;;;;;512536;28;1079;-60
2022/11/12 01:25:15;;;;;;;14.57;9.07;;;;;;;;;;511969;28;1234;-60
2022/11/12 01:25:30;;;;;;;11.45;8.85;;;;;;;;;;511427;28;1182;-60
2022/11/12 01:25:46;;;;;;;13.03;8.93;;;;;;;;;;513054;28;1160;-60
2022/11/12 01:26:05;;;;;;;14.30;9.20;;;;;;;;;;512520;28;1481;-60
2022/11/12 01:26:22;;;;;;;18.13;9.20;;;;;;;;;;509037;28;1239;-60
2022/11/12 01:26:37;;;;;;;18.10;9.00;;;;;;;;;;507876;29;1208;-60
2022/11/12 01:26:53;;;;;;;12.25;8.52;;;;;;;;;;509153;29;1304;-60
2022/11/12 01:27:08;;;;;;;12.87;8.53;;;;;;;;;;508556;29;1253;-60
2022/11/12 01:27:23;;;;;;;15.37;9.17;;;;;;;;;;507010;28;1236;-60
2022/11/12 01:27:38;;;;;;;15.10;9.32;;;;;;;;;;508980;29;1198;-60
2022/11/12 01:27:54;;;;;;;15.00;9.40;;;;;;;;;;510074;28;1321;-60
2022/11/12 01:28:09;;;;;;;14.40;9.30;;;;;;;;;;508352;29;1960;-60
2022/11/12 01:28:24;;;;;;;13.90;9.97;;;;;;;;;;508722;28;1109;-60
2022/11/12 01:28:40;;;;;;;15.30;11.00;;;;;;;;;;509790;28;1365;-60
2022/11/12 01:28:56;;;;;;;15.40;10.70;;;;;;;;;;511063;28;1451;-60
2022/11/12 01:29:11;;;;;;;15.07;9.80;;;;;;;;;;508772;28;1312;-60
2022/11/12 01:29:27;;;;;;;15.17;9.73;;;;;;;;;;508963;28;1148;-60
2022/11/12 01:29:42;;;;;;;14.47;9.77;;;;;;;;;;507226;28;1196;-61
2022/11/12 01:29:58;;;;;;;14.63;9.68;;;;;;;;;;507589;29;1605;-60
2022/11/12 01:30:13;;;;;;;16.17;9.70;;;;;;;;;;509024;28;1645;-59
2022/11/12 01:30:28;;;;;;;17.20;10.38;;;;;;;;;;509276;28;1101;-60
2022/11/12 01:30:44;;;;;;;19.07;11.47;;;;;;;;;;510561;28;1103;-60
2022/11/12 01:31:09;;;;;;;19.30;12.03;;;;;;;;;;507593;28;1194;-60
2022/11/12 01:31:25;;;;;;;15.32;11.18;;;;;;;;;;511639;28;1746;-60
2022/11/12 01:31:40;;;;;;;13.07;9.63;;;;;;;;;;510381;28;1011;-60
2022/11/12 01:31:55;;;;;;;11.55;8.43;;;;;;;;;;510571;28;1330;-60
2022/11/12 01:32:11;;;;;;;11.57;8.17;;;;;;;;;;511899;28;1856;-60
2022/11/12 01:32:26;;;;;;;17.77;12.03;;;;;;;;;;511035;28;1230;-60
2022/11/12 01:32:42;;;;;;;20.50;13.18;;;;;;;;;;510373;28;1028;-60
2022/11/12 01:32:57;;;;;;;14.70;9.97;;;;;;;;;;511123;28;1099;-60
2022/11/12 01:33:12;;;;;;;15.40;11.02;;;;;;;;;;513178;28;1180;-60
2022/11/12 01:33:27;;;;;;;17.50;12.07;;;;;;;;;;512068;28;1124;-60
2022/11/12 01:33:45;;;;;;;16.03;11.23;;;;;;;;;;512076;28;1179;-60
2022/11/12 01:34:07;;;;;;;14.88;10.90;;;;;;;;;;513477;28;1060;-60
2022/11/12 01:34:22;;;;;;;17.80;13.30;;;;;;;;;;514749;28;1174;-60
2022/11/12 01:34:37;;;;;;;18.30;13.30;;;;;;;;;;513773;28;1382;-60